Airfield :
LOGIN :

Register | Disclaimer

   EN    FR    IT 

 










Legend :    VFR   Marginal VFR   IFR   Intensive IFR   Very Intensive IFR
Visi :
Ceiling :
>= 8 km
>= 3000ft
5 to 8 km
1000 to 3000 ft
1500m to 5 km
500 to 1000 ft
800 to 1500m
200 to 500 ft
< 800m
< 200 ft
Symbols :   Thunderstorms  Fog  Heavy snow  Heavy precipitations  Wind > 20 kt
SIGMETs :     Misc.  Thunderstorms  Icing  Turbulence  Mountain Waves  Volcanic Ashes






- Airport Elevation : 358 ft


EGTC - Cranfield

CURRENT METAR :
  • 301550Z 29016KT 9999 BKN016 15/13 Q1000

EXPIRED METARs :
  • 301520Z 29017KT 9999 FEW011 SCT015 BKN047 16/14 Q1000
  • 301450Z 28014KT 9999 VCSH SCT006 BKN011 15/15 Q0999
  • 301420Z 29010KT 9999 FEW007 BKN026 15/15 Q0998
  • 301350Z 31010KT 9999 -RA SCT008 BKN015 15/15 Q0997
  • 301320Z 35010KT 5000 RA SCT004 BKN007 OVC031 14/14 Q0996

TAF TAF EGTC
Valid from the 30 at 15:00 until the 30 at 18:00 UTC


301358Z 3015/3018 VRB08KT 9999 SCT025
BECMG 3015/3017 26014KT
TEMPO 3015/3018 6000 SHRA BKN012CB
PROB30
TEMPO 3015/3018 26018G28KT 3000 +SHRA BKN008



MET'MAP, your aeronautical weather chart ! - Copyright ORBIFLY December 2007 - Disclaimer

ORBIFLY MET'MAP TEAM :

Programming & Development : Alexandra Zaïnal
Concept & original design : Baudouin d'Aumeries
Assistance for programming : Marc-Olivier Méhu
Technical & hardware support : Manuel Goepfert

Contact : metmap@orbifly.com




SOURCES & CREDITS :

   NOAA